createdAt,value
2023-02-02T00:00:26.574Z,7.5
2023-02-02T00:01:29.732Z,7.5
2023-02-02T00:02:32.666Z,7.5
2023-02-02T00:03:35.983Z,7.5
2023-02-02T00:04:39.077Z,7.5
2023-02-02T00:05:41.328Z,7.5
2023-02-02T00:06:44.942Z,7.5
2023-02-02T00:07:48.455Z,7.5
2023-02-02T00:08:51.431Z,7.5
2023-02-02T00:09:54.482Z,7.5
2023-02-02T00:10:57.634Z,7.6
2023-02-02T00:12:01.039Z,7.6
2023-02-02T00:13:04.158Z,7.6
2023-02-02T00:14:07.435Z,7.6
2023-02-02T00:15:10.985Z,7.6
2023-02-02T00:16:14.584Z,7.6
2023-02-02T00:17:18.317Z,7.6
2023-02-02T00:18:21.791Z,7.6
2023-02-02T00:19:25.051Z,7.7
2023-02-02T00:20:27.479Z,7.7
2023-02-02T00:21:31.478Z,7.7
2023-02-02T00:22:35.259Z,7.7
2023-02-02T00:23:38.300Z,7.7
2023-02-02T00:24:41.663Z,7.7
2023-02-02T00:25:45.078Z,7.7
2023-02-02T00:26:48.598Z,7.7
2023-02-02T00:27:51.914Z,7.7
2023-02-02T00:28:54.893Z,7.7
2023-02-02T00:29:58.332Z,7.8
2023-02-02T00:31:02.280Z,7.8
2023-02-02T00:32:06.505Z,7.8
2023-02-02T00:33:09.930Z,7.8
2023-02-02T00:34:13.287Z,7.8
2023-02-02T00:35:17.261Z,7.8
2023-02-02T00:36:20.552Z,7.8
2023-02-02T00:37:23.753Z,7.8
2023-02-02T00:38:27.154Z,7.8
2023-02-02T00:39:31.011Z,7.8
2023-02-02T00:40:33.468Z,7.8
2023-02-02T00:41:36.570Z,7.8
2023-02-02T00:42:40.016Z,7.8
2023-02-02T00:43:43.274Z,7.8
2023-02-02T00:44:46.542Z,7.8
2023-02-02T00:45:49.654Z,7.8
2023-02-02T00:46:53.003Z,7.8
2023-02-02T00:47:56.634Z,7.8
2023-02-02T00:49:00.114Z,7.8
2023-02-02T00:50:03.788Z,7.8
2023-02-02T00:51:06.785Z,7.8
2023-02-02T00:52:10.160Z,7.8
2023-02-02T00:53:13.531Z,7.8
2023-02-02T00:54:17.208Z,7.8
2023-02-02T00:55:20.619Z,7.8
2023-02-02T00:56:23.919Z,7.8
2023-02-02T00:57:26.993Z,7.8
2023-02-02T00:58:30.147Z,7.8
2023-02-02T00:59:33.597Z,7.8
2023-02-02T01:00:36.368Z,7.8
2023-02-02T01:01:39.511Z,7.8
2023-02-02T01:02:43.240Z,7.8
2023-02-02T01:03:46.681Z,7.8
2023-02-02T01:04:50.423Z,7.8
2023-02-02T01:05:53.481Z,7.8
2023-02-02T01:06:56.847Z,7.8
2023-02-02T01:08:00.326Z,7.8
2023-02-02T01:09:03.712Z,7.8
2023-02-02T01:10:07.061Z,7.8
2023-02-02T01:11:10.479Z,7.8
2023-02-02T01:12:13.843Z,7.8
2023-02-02T01:13:16.639Z,7.8
2023-02-02T01:14:19.144Z,7.8
2023-02-02T01:15:23.205Z,7.8
2023-02-02T01:16:28.462Z,7.8
2023-02-02T01:17:31.524Z,7.8
2023-02-02T01:18:34.997Z,7.8
2023-02-02T01:19:38.278Z,7.8
2023-02-02T01:20:41.571Z,7.8
2023-02-02T01:21:44.845Z,7.8
2023-02-02T01:22:48.492Z,7.8
2023-02-02T01:23:52.132Z,7.8
2023-02-02T01:24:55.785Z,7.8
2023-02-02T01:25:58.875Z,7.8
2023-02-02T01:27:01.866Z,7.8
2023-02-02T01:28:05.057Z,7.8
2023-02-02T01:29:08.152Z,7.8
2023-02-02T01:30:10.960Z,7.9
2023-02-02T01:31:13.586Z,7.9
2023-02-02T01:32:16.695Z,7.9
2023-02-02T01:33:19.029Z,7.9
2023-02-02T01:34:22.774Z,7.9
2023-02-02T01:35:27.156Z,7.9
2023-02-02T01:36:30.938Z,7.9
2023-02-02T01:37:34.039Z,7.9
2023-02-02T01:38:37.104Z,7.9
2023-02-02T01:39:40.083Z,7.9
2023-02-02T01:40:43.177Z,7.9
2023-02-02T01:41:45.701Z,7.9
2023-02-02T01:42:49.117Z,7.9
2023-02-02T01:43:51.594Z,7.9
2023-02-02T01:44:55.008Z,8
2023-02-02T01:45:59.149Z,7.9
2023-02-02T01:47:02.940Z,7.9
2023-02-02T01:48:06.661Z,7.9
2023-02-02T01:49:09.471Z,7.9
2023-02-02T01:50:12.619Z,7.9
2023-02-02T01:51:15.689Z,7.9
2023-02-02T01:52:19.086Z,7.8
2023-02-02T01:53:22.827Z,7.9
2023-02-02T01:54:26.002Z,7.8
2023-02-02T01:55:29.342Z,7.8
2023-02-02T01:56:31.253Z,7.8
2023-02-02T01:57:35.000Z,7.8
2023-02-02T01:58:38.667Z,7.8
2023-02-02T01:59:41.932Z,7.8
2023-02-02T02:00:47.877Z,7.8
2023-02-02T02:01:51.312Z,7.8
2023-02-02T02:02:54.063Z,7.8
2023-02-02T02:03:57.066Z,7.7
2023-02-02T02:05:00.522Z,7.7
2023-02-02T02:06:04.365Z,7.7
2023-02-02T02:07:07.291Z,7.7
2023-02-02T02:08:10.508Z,7.7
2023-02-02T02:09:13.236Z,7.7
2023-02-02T02:10:16.883Z,7.7
2023-02-02T02:11:20.231Z,7.7
2023-02-02T02:12:24.015Z,7.7
2023-02-02T02:13:27.357Z,7.7
2023-02-02T02:14:30.615Z,7.8
2023-02-02T02:15:33.160Z,7.8
2023-02-02T02:16:37.084Z,7.8
2023-02-02T02:17:40.564Z,7.8
2023-02-02T02:18:43.855Z,7.8
2023-02-02T02:19:46.844Z,7.8
2023-02-02T02:20:50.923Z,7.8
2023-02-02T02:21:54.659Z,7.8
2023-02-02T02:22:58.459Z,7.8
2023-02-02T02:24:02.490Z,7.8
2023-02-02T02:25:05.239Z,7.8
2023-02-02T02:26:08.273Z,7.8
2023-02-02T02:27:11.639Z,7.8
2023-02-02T02:28:15.363Z,7.8
2023-02-02T02:29:18.187Z,7.8
2023-02-02T02:30:21.448Z,7.8
2023-02-02T02:31:24.715Z,7.7
2023-02-02T02:32:28.232Z,7.7
2023-02-02T02:33:31.069Z,7.7
2023-02-02T02:34:34.092Z,7.7
2023-02-02T02:35:37.479Z,7.7
2023-02-02T02:36:39.747Z,7.7
2023-02-02T02:37:43.457Z,7.7
2023-02-02T02:38:46.989Z,7.7
2023-02-02T02:39:50.786Z,7.6
2023-02-02T02:40:53.479Z,7.6
2023-02-02T02:41:56.614Z,7.6
2023-02-02T02:42:59.358Z,7.6
2023-02-02T02:44:02.832Z,7.6
2023-02-02T02:45:05.993Z,7.6
2023-02-02T02:46:08.856Z,7.6
2023-02-02T02:47:12.152Z,7.5
2023-02-02T02:48:14.387Z,7.5
2023-02-02T02:49:17.513Z,7.5
2023-02-02T02:50:20.663Z,7.5
2023-02-02T02:51:24.025Z,7.5
2023-02-02T02:52:26.834Z,7.4
2023-02-02T02:53:29.877Z,7.4
2023-02-02T02:54:33.714Z,7.4
2023-02-02T02:55:36.858Z,7.4
2023-02-02T02:56:40.212Z,7.4
2023-02-02T02:57:43.931Z,7.4
2023-02-02T02:58:47.654Z,7.4
2023-02-02T02:59:50.242Z,7.4
2023-02-02T03:00:53.400Z,7.3
2023-02-02T03:01:56.661Z,7.3
2023-02-02T03:03:00.005Z,7.3
2023-02-02T03:04:03.078Z,7.3
2023-02-02T03:05:06.065Z,7.2
2023-02-02T03:06:10.077Z,7.3
2023-02-02T03:07:13.583Z,7.2
2023-02-02T03:08:16.657Z,7.2
2023-02-02T03:09:20.457Z,7.2
2023-02-02T03:10:22.891Z,7.2
2023-02-02T03:11:26.304Z,7.2
2023-02-02T03:12:29.154Z,7.2
2023-02-02T03:13:32.918Z,7.1
2023-02-02T03:14:36.066Z,7.2
2023-02-02T03:15:39.591Z,7.1
2023-02-02T03:16:42.809Z,7.1
2023-02-02T03:17:45.610Z,7.1
2023-02-02T03:18:48.682Z,7.1
2023-02-02T03:19:51.532Z,7.1
2023-02-02T03:20:54.610Z,7.1
2023-02-02T03:21:58.071Z,7.1
2023-02-02T03:23:01.141Z,7.1
2023-02-02T03:24:03.877Z,7.1
2023-02-02T03:25:06.951Z,7.1
2023-02-02T03:26:10.039Z,7.1
2023-02-02T03:27:13.646Z,7.1
2023-02-02T03:28:16.919Z,7.1
2023-02-02T03:29:19.978Z,7.1
2023-02-02T03:30:23.743Z,7.1
2023-02-02T03:31:27.717Z,7.1
2023-02-02T03:32:31.865Z,7.1
2023-02-02T03:33:35.257Z,7.1
2023-02-02T03:34:38.618Z,7
2023-02-02T03:35:41.358Z,7
2023-02-02T03:36:44.509Z,7
2023-02-02T03:37:47.522Z,7
2023-02-02T03:38:50.241Z,7
2023-02-02T03:39:54.769Z,7
2023-02-02T03:40:58.453Z,7
2023-02-02T03:42:01.914Z,7
2023-02-02T03:43:05.316Z,7
2023-02-02T03:44:08.451Z,7
2023-02-02T03:45:11.785Z,7.1
2023-02-02T03:46:14.588Z,7.1
2023-02-02T03:47:18.264Z,7.1
2023-02-02T03:48:21.889Z,7.1
2023-02-02T03:49:24.682Z,7.1
2023-02-02T03:50:27.951Z,7.1
2023-02-02T03:51:31.133Z,7.1
2023-02-02T03:52:34.200Z,7.1
2023-02-02T03:53:36.933Z,7.1
2023-02-02T03:54:40.299Z,7.1
2023-02-02T03:55:44.042Z,7.1
2023-02-02T03:56:47.861Z,7.1
2023-02-02T03:57:50.615Z,7.1
2023-02-02T03:58:54.536Z,7.1
2023-02-02T03:59:57.260Z,7.1
2023-02-02T04:01:00.418Z,7.1
2023-02-02T04:02:03.762Z,7.1
2023-02-02T04:03:06.487Z,7.1
2023-02-02T04:04:10.481Z,7.1
2023-02-02T04:05:13.557Z,7.1
2023-02-02T04:06:16.683Z,7.1
2023-02-02T04:07:20.104Z,7.1
2023-02-02T04:08:23.101Z,7.1
2023-02-02T04:09:26.478Z,7.1
2023-02-02T04:10:29.750Z,7.1
2023-02-02T04:11:33.031Z,7.1
2023-02-02T04:12:36.764Z,7.1
2023-02-02T04:13:39.546Z,7.1
2023-02-02T04:14:43.357Z,7.1
2023-02-02T04:15:46.392Z,7.1
2023-02-02T04:16:49.605Z,7.1
2023-02-02T04:17:53.051Z,7.1
2023-02-02T04:18:56.376Z,7.1
2023-02-02T04:19:59.794Z,7.1
2023-02-02T04:21:03.516Z,7.1
2023-02-02T04:22:06.241Z,7.1
2023-02-02T04:23:09.106Z,7.1
2023-02-02T04:24:11.953Z,7.1
2023-02-02T04:25:15.447Z,7.1
2023-02-02T04:26:18.792Z,7.1
2023-02-02T04:27:22.726Z,7.1
2023-02-02T04:28:26.194Z,7.1
2023-02-02T04:29:29.457Z,7.1
2023-02-02T04:30:33.335Z,7.1
2023-02-02T04:31:36.180Z,7.1
2023-02-02T04:32:39.181Z,7.1
2023-02-02T04:33:42.576Z,7.1
2023-02-02T04:34:45.394Z,7.2
2023-02-02T04:35:47.928Z,7.2
2023-02-02T04:36:51.205Z,7.2
2023-02-02T04:37:54.480Z,7.2
2023-02-02T04:38:57.991Z,7.2
2023-02-02T04:40:01.138Z,7.2
2023-02-02T04:41:04.257Z,7.2
2023-02-02T04:42:07.531Z,7.2
2023-02-02T04:43:10.704Z,7.2
2023-02-02T04:44:14.050Z,7.2
2023-02-02T04:45:16.831Z,7.2
2023-02-02T04:46:20.593Z,7.2
2023-02-02T04:47:23.318Z,7.3
2023-02-02T04:48:26.671Z,7.3
2023-02-02T04:49:29.483Z,7.3
2023-02-02T04:50:32.806Z,7.3
2023-02-02T04:51:35.921Z,7.3
2023-02-02T04:52:38.996Z,7.3
2023-02-02T04:53:41.439Z,7.3
2023-02-02T04:54:45.075Z,7.3
2023-02-02T04:55:48.100Z,7.3
2023-02-02T04:56:51.482Z,7.3
2023-02-02T04:57:54.579Z,7.4
2023-02-02T04:58:58.364Z,7.4
2023-02-02T05:00:01.733Z,7.4
2023-02-02T05:01:04.598Z,7.4
2023-02-02T05:02:07.972Z,7.4
2023-02-02T05:03:11.385Z,7.4
2023-02-02T05:04:14.811Z,7.4
2023-02-02T05:05:18.241Z,7.4
2023-02-02T05:06:21.978Z,7.4
2023-02-02T05:07:25.336Z,7.4
2023-02-02T05:08:28.408Z,7.4
2023-02-02T05:09:32.128Z,7.4
2023-02-02T05:10:34.997Z,7.4
2023-02-02T05:11:37.802Z,7.5
2023-02-02T05:12:41.220Z,7.5
2023-02-02T05:13:44.204Z,7.4
2023-02-02T05:14:47.587Z,7.5
2023-02-02T05:15:51.118Z,7.5
2023-02-02T05:16:55.078Z,7.5
2023-02-02T05:17:59.559Z,7.5
2023-02-02T05:19:02.762Z,7.5
2023-02-02T05:20:05.937Z,7.5
2023-02-02T05:21:08.950Z,7.6
2023-02-02T05:22:12.236Z,7.6
2023-02-02T05:23:15.686Z,7.6
2023-02-02T05:24:18.720Z,7.6
2023-02-02T05:25:21.527Z,7.6
2023-02-02T05:26:26.185Z,7.6
2023-02-02T05:27:29.820Z,7.6
2023-02-02T05:28:33.211Z,7.6
2023-02-02T05:29:36.991Z,7.6
2023-02-02T05:30:39.981Z,7.6
2023-02-02T05:31:43.523Z,7.6
2023-02-02T05:32:46.374Z,7.6
2023-02-02T05:33:49.806Z,7.6
2023-02-02T05:34:53.198Z,7.6
2023-02-02T05:35:56.558Z,7.6
2023-02-02T05:36:59.005Z,7.6
2023-02-02T05:38:01.339Z,7.6
2023-02-02T05:39:04.453Z,7.6
2023-02-02T05:40:07.477Z,7.6
2023-02-02T05:41:10.893Z,7.6
2023-02-02T05:42:14.323Z,7.6
2023-02-02T05:43:17.590Z,7.6
2023-02-02T05:44:23.809Z,7.6
2023-02-02T05:45:27.604Z,7.6
2023-02-02T05:46:30.767Z,7.6
2023-02-02T05:47:34.320Z,7.6
2023-02-02T05:48:36.826Z,7.6
2023-02-02T05:49:40.101Z,7.6
2023-02-02T05:50:42.984Z,7.6
2023-02-02T05:51:46.008Z,7.6
2023-02-02T05:52:48.521Z,7.6
2023-02-02T05:53:51.689Z,7.6
2023-02-02T05:54:55.423Z,7.6
2023-02-02T05:55:58.154Z,7.6
2023-02-02T05:57:01.302Z,7.6
2023-02-02T05:58:04.154Z,7.6
2023-02-02T05:59:07.342Z,7.6
2023-02-02T06:00:10.816Z,7.6
2023-02-02T06:01:13.553Z,7.6
2023-02-02T06:02:16.684Z,7.6
2023-02-02T06:03:21.224Z,7.6
2023-02-02T06:04:24.283Z,7.6
2023-02-02T06:05:28.447Z,7.6
2023-02-02T06:06:31.526Z,7.6
2023-02-02T06:07:34.411Z,7.6
2023-02-02T06:08:38.130Z,7.6
2023-02-02T06:09:40.849Z,7.5
2023-02-02T06:10:44.235Z,7.5
2023-02-02T06:11:47.610Z,7.5
2023-02-02T06:12:50.397Z,7.5
2023-02-02T06:13:53.102Z,7.5
2023-02-02T06:14:55.263Z,7.5
2023-02-02T06:15:58.324Z,7.5
2023-02-02T06:17:01.573Z,7.5
2023-02-02T06:18:05.140Z,7.5
2023-02-02T06:19:08.624Z,7.4
2023-02-02T06:20:11.634Z,7.5
2023-02-02T06:21:15.050Z,7.5
2023-02-02T06:22:18.048Z,7.4
2023-02-02T06:23:21.309Z,7.4
2023-02-02T06:24:24.005Z,7.4
2023-02-02T06:25:27.968Z,7.4
2023-02-02T06:26:31.118Z,7.4
2023-02-02T06:27:34.088Z,7.4
2023-02-02T06:28:37.457Z,7.4
2023-02-02T06:29:40.838Z,7.3
2023-02-02T06:30:45.305Z,7.3
2023-02-02T06:31:49.149Z,7.3
2023-02-02T06:32:52.283Z,7.3
2023-02-02T06:33:55.168Z,7.3
2023-02-02T06:34:58.706Z,7.2
2023-02-02T06:36:01.569Z,7.2
2023-02-02T06:37:05.254Z,7.2
2023-02-02T06:38:08.961Z,7.2
2023-02-02T06:39:11.136Z,7.2
2023-02-02T06:40:14.327Z,7.2
2023-02-02T06:41:17.758Z,7.2
2023-02-02T06:42:23.080Z,7.2
2023-02-02T06:43:25.803Z,7.1
2023-02-02T06:44:28.534Z,7.1
2023-02-02T06:45:31.251Z,7.1
2023-02-02T06:46:35.144Z,7.1
2023-02-02T06:47:38.573Z,7.1
2023-02-02T06:48:41.646Z,7.1
2023-02-02T06:49:44.856Z,7
2023-02-02T06:50:48.639Z,7
2023-02-02T06:51:51.099Z,7
2023-02-02T06:52:54.911Z,7
2023-02-02T06:54:00.221Z,7
2023-02-02T06:55:03.888Z,7
2023-02-02T06:56:06.673Z,7
2023-02-02T06:57:09.766Z,7
2023-02-02T06:58:13.591Z,7
2023-02-02T06:59:16.638Z,7
2023-02-02T07:00:21.631Z,7
2023-02-02T07:01:25.154Z,6.9
2023-02-02T07:02:28.504Z,6.9
2023-02-02T07:03:31.501Z,6.9
2023-02-02T07:04:35.203Z,7
2023-02-02T07:05:37.704Z,7
2023-02-02T07:06:40.772Z,7
2023-02-02T07:07:43.523Z,7
2023-02-02T07:09:03.694Z,7
2023-02-02T07:10:06.439Z,7
2023-02-02T07:11:17.391Z,7
2023-02-02T07:12:22.529Z,7
2023-02-02T07:13:26.640Z,7
2023-02-02T07:14:29.659Z,7.1
2023-02-02T07:15:33.402Z,7
2023-02-02T07:16:36.252Z,7.1
2023-02-02T07:17:39.638Z,7.1
2023-02-02T07:18:42.947Z,7.1
2023-02-02T07:19:46.396Z,7.1
2023-02-02T07:20:49.867Z,7.1
2023-02-02T07:21:53.293Z,7.2
2023-02-02T07:22:56.632Z,7.2
2023-02-02T07:23:59.798Z,7.2
2023-02-02T07:25:02.908Z,7.2
2023-02-02T07:26:06.248Z,7.2
2023-02-02T07:27:08.731Z,7.2
2023-02-02T07:28:11.772Z,7.2
2023-02-02T07:29:14.985Z,7.2
2023-02-02T07:30:18.523Z,7.2
2023-02-02T07:31:22.068Z,7.3
2023-02-02T07:32:25.959Z,7.2
2023-02-02T07:33:28.770Z,7.3
2023-02-02T07:34:32.222Z,7.3
2023-02-02T07:35:35.572Z,7.3
2023-02-02T07:36:38.903Z,7.3
2023-02-02T07:37:42.250Z,7.3
2023-02-02T07:38:45.328Z,7.3
2023-02-02T07:39:49.148Z,7.3
2023-02-02T07:40:52.245Z,7.3
2023-02-02T07:41:55.872Z,7.3
2023-02-02T07:42:59.158Z,7.3
2023-02-02T07:44:02.018Z,7.3
2023-02-02T07:45:28.905Z,7.3
2023-02-02T07:46:33.038Z,7.3
2023-02-02T07:47:38.796Z,7.3
2023-02-02T07:48:42.175Z,7.3
2023-02-02T07:49:45.873Z,7.3
2023-02-02T07:50:49.647Z,7.2
2023-02-02T07:51:53.508Z,7.3
2023-02-02T07:52:57.670Z,7.2
2023-02-02T07:54:01.422Z,7.3
2023-02-02T07:55:15.700Z,7.3
2023-02-02T07:56:18.815Z,7.3
2023-02-02T07:57:22.557Z,7.3
2023-02-02T07:58:25.278Z,7.3
2023-02-02T07:59:32.372Z,7.3
2023-02-02T08:00:36.489Z,7.3
2023-02-02T08:01:40.261Z,7.3
2023-02-02T08:02:43.519Z,7.3
2023-02-02T08:03:46.868Z,7.3
2023-02-02T08:04:50.000Z,7.3
2023-02-02T08:05:52.428Z,7.2
2023-02-02T08:06:56.121Z,7.2
2023-02-02T08:07:59.812Z,7.2
2023-02-02T08:09:03.179Z,7.2
2023-02-02T08:10:06.650Z,7.2
2023-02-02T08:11:09.721Z,7.2
2023-02-02T08:12:13.174Z,7.2
2023-02-02T08:13:16.688Z,7.2
2023-02-02T08:14:20.162Z,7.1
2023-02-02T08:15:24.584Z,7.1
2023-02-02T08:16:29.930Z,7.1
2023-02-02T08:17:33.474Z,7.1
2023-02-02T08:18:36.717Z,7.1
2023-02-02T08:19:39.899Z,7.1
2023-02-02T08:20:43.362Z,7.1
2023-02-02T08:21:46.721Z,7.1
2023-02-02T08:22:50.210Z,7.1
2023-02-02T08:23:53.754Z,7.2
2023-02-02T08:24:56.798Z,7.2
2023-02-02T08:26:00.250Z,7.2
2023-02-02T08:27:03.654Z,7.3
2023-02-02T08:28:06.821Z,7.3
2023-02-02T08:29:10.176Z,7.3
2023-02-02T08:30:13.648Z,7.3
2023-02-02T08:31:17.612Z,7.3
2023-02-02T08:32:21.237Z,7.4
2023-02-02T08:33:24.335Z,7.4
2023-02-02T08:34:27.629Z,7.5
2023-02-02T08:35:31.358Z,7.5
2023-02-02T08:36:33.803Z,7.5
2023-02-02T08:37:36.655Z,7.6
2023-02-02T08:38:39.791Z,7.6
2023-02-02T08:39:43.212Z,7.7
2023-02-02T08:40:46.919Z,7.7
2023-02-02T08:41:50.789Z,7.7
2023-02-02T08:42:54.660Z,7.8
2023-02-02T08:43:57.895Z,7.8
2023-02-02T08:46:06.256Z,7.9
2023-02-02T08:47:10.971Z,7.9
2023-02-02T08:48:14.804Z,8
2023-02-02T08:49:18.171Z,8.1
2023-02-02T08:50:21.315Z,8.1
2023-02-02T08:51:24.585Z,8.2
2023-02-02T08:52:28.624Z,8.2
2023-02-02T08:53:31.094Z,8.2
2023-02-02T08:54:34.226Z,8.3
2023-02-02T08:55:37.778Z,8.2
2023-02-02T08:56:41.176Z,8.3
2023-02-02T08:57:44.569Z,8.3
2023-02-02T08:58:48.643Z,8.3
2023-02-02T08:59:51.403Z,8.3
2023-02-02T09:00:55.012Z,8.4
2023-02-02T09:01:58.412Z,8.4
2023-02-02T09:03:01.968Z,8.5
2023-02-02T09:04:06.064Z,8.5
2023-02-02T09:05:09.548Z,8.6
2023-02-02T09:06:12.944Z,8.6
2023-02-02T09:07:16.948Z,8.7
2023-02-02T09:08:22.661Z,8.7
2023-02-02T09:09:26.109Z,8.7
2023-02-02T09:10:29.253Z,8.8
2023-02-02T09:11:32.975Z,8.8
2023-02-02T09:12:36.445Z,8.9
2023-02-02T09:13:40.116Z,8.9
2023-02-02T09:14:43.760Z,8.9
2023-02-02T09:15:47.495Z,9
2023-02-02T09:16:51.443Z,9
2023-02-02T09:17:54.378Z,9
2023-02-02T09:18:57.800Z,9
2023-02-02T09:20:01.156Z,9
2023-02-02T09:21:03.892Z,9
2023-02-02T09:22:07.335Z,9
2023-02-02T09:23:10.414Z,8.9
2023-02-02T09:24:13.430Z,8.8
2023-02-02T09:25:17.198Z,8.8
2023-02-02T09:26:20.624Z,8.7
2023-02-02T09:27:24.529Z,8.6
2023-02-02T09:28:28.237Z,8.6
2023-02-02T09:29:31.719Z,8.5
2023-02-02T09:30:35.309Z,8.5
2023-02-02T09:31:39.017Z,8.4
2023-02-02T09:32:42.577Z,8.3
2023-02-02T09:33:45.904Z,8.2
2023-02-02T09:34:49.696Z,8.2
2023-02-02T09:35:53.501Z,8.1
2023-02-02T09:36:57.532Z,8.1
2023-02-02T09:38:00.881Z,8
2023-02-02T09:39:04.658Z,8
2023-02-02T09:40:07.990Z,7.9
2023-02-02T09:41:11.403Z,7.9
2023-02-02T09:42:15.058Z,7.8
2023-02-02T09:43:18.803Z,7.8
2023-02-02T09:44:22.136Z,7.7
2023-02-02T09:45:27.298Z,7.7
2023-02-02T09:46:31.505Z,7.6
2023-02-02T09:47:34.955Z,7.6
2023-02-02T09:48:37.770Z,7.5
2023-02-02T09:49:40.835Z,7.5
2023-02-02T09:50:44.863Z,7.5
2023-02-02T09:51:48.880Z,7.4
2023-02-02T09:52:52.553Z,7.4
2023-02-02T09:53:56.882Z,7.4
2023-02-02T09:55:00.406Z,7.4
2023-02-02T09:56:03.451Z,7.4
2023-02-02T09:57:07.150Z,7.4
2023-02-02T09:58:10.625Z,7.4
2023-02-02T09:59:24.654Z,7.4
2023-02-02T10:00:28.489Z,7.4
2023-02-02T10:01:32.223Z,7.4
2023-02-02T10:02:35.784Z,7.4
2023-02-02T10:03:38.512Z,7.5
2023-02-02T10:04:42.092Z,7.5
2023-02-02T10:05:45.335Z,7.6
2023-02-02T10:06:47.958Z,7.7
2023-02-02T10:07:51.159Z,7.9
2023-02-02T10:08:54.084Z,8
2023-02-02T10:09:57.518Z,8.2
2023-02-02T10:11:01.012Z,8.3
2023-02-02T10:12:04.346Z,8.5
2023-02-02T10:13:07.823Z,8.6
2023-02-02T10:14:11.589Z,8.8
2023-02-02T10:15:15.388Z,8.9
2023-02-02T10:16:19.177Z,9.1
2023-02-02T10:17:22.808Z,9.2
2023-02-02T10:18:26.494Z,9.4
2023-02-02T10:19:30.099Z,9.5
2023-02-02T10:20:32.809Z,9.7
2023-02-02T10:21:36.598Z,9.8
2023-02-02T10:22:40.109Z,10
2023-02-02T10:23:42.906Z,10.1
2023-02-02T10:24:46.091Z,10.2
2023-02-02T10:25:49.474Z,10.4
2023-02-02T10:26:52.084Z,10.5
2023-02-02T10:27:55.211Z,10.6
2023-02-02T10:28:59.262Z,10.7
2023-02-02T10:30:02.638Z,10.7
2023-02-02T10:31:06.548Z,10.9
2023-02-02T10:32:10.835Z,11
2023-02-02T10:33:13.351Z,11.1
2023-02-02T10:34:16.212Z,11.2
2023-02-02T10:35:19.881Z,11.3
2023-02-02T10:36:22.848Z,11.4
2023-02-02T10:37:26.287Z,11.4
2023-02-02T10:38:29.056Z,11.4
2023-02-02T10:39:32.815Z,11.4
2023-02-02T10:40:36.294Z,11.4
2023-02-02T10:41:39.897Z,11.4
2023-02-02T10:42:43.202Z,11.4
2023-02-02T10:43:46.015Z,11.4
2023-02-02T10:44:49.415Z,11.4
2023-02-02T10:45:53.266Z,11.4
2023-02-02T10:46:57.243Z,11.3
2023-02-02T10:48:00.394Z,11.3
2023-02-02T10:49:03.662Z,11.2
2023-02-02T10:50:07.372Z,11.2
2023-02-02T10:51:09.890Z,11.1
2023-02-02T10:52:13.952Z,11
2023-02-02T10:53:17.720Z,11
2023-02-02T10:54:21.738Z,10.9
2023-02-02T10:55:25.435Z,10.8
2023-02-02T10:56:28.889Z,10.8
2023-02-02T10:57:32.365Z,10.7
2023-02-02T10:58:36.024Z,10.7
2023-02-02T10:59:39.401Z,10.6
2023-02-02T11:00:43.058Z,10.5
2023-02-02T11:01:45.589Z,10.5
2023-02-02T11:02:49.208Z,10.4
2023-02-02T11:03:53.242Z,10.4
2023-02-02T11:04:56.924Z,10.3
2023-02-02T11:06:00.062Z,10.3
2023-02-02T11:07:03.245Z,10.2
2023-02-02T11:08:05.862Z,10.2
2023-02-02T11:09:09.332Z,10.1
2023-02-02T11:10:12.324Z,10.1
2023-02-02T11:11:15.181Z,10.1
2023-02-02T11:12:18.561Z,10
2023-02-02T11:13:21.634Z,10
2023-02-02T11:14:24.753Z,10
2023-02-02T11:15:27.849Z,10.1
2023-02-02T11:16:45.071Z,10.2
2023-02-02T11:17:49.515Z,10.3
2023-02-02T11:18:53.378Z,10.4
2023-02-02T11:19:56.755Z,10.6
2023-02-02T11:20:59.582Z,10.7
2023-02-02T11:22:03.127Z,10.8
2023-02-02T11:23:06.846Z,10.9
2023-02-02T11:24:10.536Z,11
2023-02-02T11:25:13.553Z,11.2
2023-02-02T11:26:17.204Z,11.2
2023-02-02T11:27:20.424Z,11.3
2023-02-02T11:28:24.189Z,11.4
2023-02-02T11:29:27.576Z,11.5
2023-02-02T11:30:30.639Z,11.5
2023-02-02T11:31:34.071Z,11.6
2023-02-02T11:32:38.368Z,11.6
2023-02-02T11:33:41.489Z,11.6
2023-02-02T11:34:44.549Z,11.7
2023-02-02T11:35:47.448Z,11.6
2023-02-02T11:36:51.214Z,11.6
2023-02-02T11:37:54.909Z,11.6
2023-02-02T11:38:58.966Z,11.6
2023-02-02T11:40:02.069Z,11.5
2023-02-02T11:41:05.010Z,11.5
2023-02-02T11:42:08.371Z,11.4
2023-02-02T11:43:11.834Z,11.4
2023-02-02T11:44:14.596Z,11.4
2023-02-02T11:45:17.044Z,11.4
2023-02-02T11:46:21.465Z,11.4
2023-02-02T11:47:24.709Z,11.4
2023-02-02T11:48:28.452Z,11.3
2023-02-02T11:49:31.567Z,11.3
2023-02-02T11:50:34.729Z,11.4
2023-02-02T11:51:37.581Z,11.3
2023-02-02T11:52:41.036Z,11.3
2023-02-02T11:53:44.426Z,11.3
2023-02-02T11:54:47.838Z,11.3
2023-02-02T11:55:51.185Z,11.3
2023-02-02T11:56:54.329Z,11.3
2023-02-02T11:57:57.673Z,11.4
2023-02-02T11:59:01.312Z,11.4
2023-02-02T12:00:04.310Z,11.4
2023-02-02T12:01:08.045Z,11.5
2023-02-02T12:02:11.682Z,11.5
2023-02-02T12:03:14.946Z,11.5
2023-02-02T12:04:18.334Z,11.4
2023-02-02T12:05:21.913Z,11.4
2023-02-02T12:06:25.451Z,11.5
2023-02-02T12:07:28.908Z,11.4
2023-02-02T12:08:32.362Z,11.5
2023-02-02T12:09:35.431Z,11.5
2023-02-02T12:10:38.722Z,11.5
2023-02-02T12:11:42.419Z,11.5
2023-02-02T12:12:46.127Z,11.5
2023-02-02T12:13:49.125Z,11.5
2023-02-02T12:14:52.300Z,11.5
2023-02-02T12:15:56.179Z,11.5
2023-02-02T12:16:59.752Z,11.6
2023-02-02T12:18:03.233Z,11.7
2023-02-02T12:19:06.481Z,11.7
2023-02-02T12:20:10.237Z,11.7
2023-02-02T12:21:13.737Z,11.7
2023-02-02T12:22:17.458Z,11.7
2023-02-02T12:23:21.280Z,11.6
2023-02-02T12:24:24.859Z,11.7
2023-02-02T12:25:28.655Z,11.6
2023-02-02T12:26:31.531Z,11.6
2023-02-02T12:27:35.408Z,11.6
2023-02-02T12:28:38.788Z,11.7
2023-02-02T12:29:42.141Z,11.7
2023-02-02T12:30:45.461Z,11.8
2023-02-02T12:31:49.228Z,11.9
2023-02-02T12:32:53.039Z,12
2023-02-02T12:33:57.140Z,12
2023-02-02T12:35:00.141Z,12.1
2023-02-02T12:36:03.165Z,12.2
2023-02-02T12:37:06.896Z,12.3
2023-02-02T12:38:10.241Z,12.4
2023-02-02T12:39:13.369Z,12.5
2023-02-02T12:40:16.189Z,12.6
2023-02-02T12:41:19.369Z,12.7
2023-02-02T12:42:23.234Z,12.8
2023-02-02T12:43:27.909Z,12.9
2023-02-02T12:44:31.348Z,13
2023-02-02T12:45:34.614Z,13.2
2023-02-02T12:46:38.170Z,13.4
2023-02-02T12:47:41.258Z,13.5
2023-02-02T12:48:44.066Z,13.6
2023-02-02T12:49:47.530Z,13.8
2023-02-02T12:50:51.106Z,13.9
2023-02-02T12:51:54.088Z,14
2023-02-02T12:52:57.521Z,14.1
2023-02-02T12:54:51.631Z,14.1
2023-02-02T12:56:01.743Z,14.2
2023-02-02T12:57:06.555Z,14.3
2023-02-02T12:58:10.350Z,14.4
2023-02-02T12:59:13.135Z,14.5
2023-02-02T13:00:16.755Z,14.5
2023-02-02T13:01:20.763Z,14.5
2023-02-02T13:02:24.425Z,14.6
2023-02-02T13:03:28.151Z,14.6
2023-02-02T13:04:31.019Z,14.7
2023-02-02T13:05:34.859Z,14.8
2023-02-02T13:06:38.303Z,14.9
2023-02-02T13:07:42.039Z,15
2023-02-02T13:08:45.266Z,15
2023-02-02T13:09:49.119Z,15
2023-02-02T13:10:52.876Z,15
2023-02-02T13:11:56.623Z,14.9
2023-02-02T13:13:00.033Z,14.9
2023-02-02T13:14:03.154Z,14.9
2023-02-02T13:15:06.375Z,14.9
2023-02-02T13:16:09.791Z,14.9
2023-02-02T13:17:13.233Z,14.9
2023-02-02T13:18:17.249Z,14.9
2023-02-02T13:19:20.525Z,15
2023-02-02T13:20:24.764Z,15
2023-02-02T13:21:29.529Z,15
2023-02-02T13:22:32.930Z,15
2023-02-02T13:23:36.997Z,15
2023-02-02T13:24:40.615Z,15
2023-02-02T13:25:43.925Z,15
2023-02-02T13:26:47.487Z,14.9
2023-02-02T13:27:51.537Z,14.9
2023-02-02T13:28:55.344Z,14.9
2023-02-02T13:29:58.670Z,14.9
2023-02-02T13:31:03.482Z,14.8
2023-02-02T13:32:09.742Z,14.8
2023-02-02T13:33:13.515Z,14.8
2023-02-02T13:34:16.315Z,14.8
2023-02-02T13:35:19.427Z,14.9
2023-02-02T13:36:23.948Z,14.9
2023-02-02T13:37:27.658Z,14.9
2023-02-02T13:38:31.646Z,14.9
2023-02-02T13:39:34.829Z,14.9
2023-02-02T13:40:38.905Z,14.9
2023-02-02T13:41:43.250Z,14.9
2023-02-02T13:42:46.084Z,14.9
2023-02-02T13:43:48.947Z,14.9
2023-02-02T13:44:52.378Z,14.8
2023-02-02T13:45:55.797Z,14.8
2023-02-02T13:46:59.212Z,14.8
2023-02-02T13:48:02.920Z,14.8
2023-02-02T13:49:06.949Z,14.7
2023-02-02T13:50:10.679Z,14.7
2023-02-02T13:51:14.383Z,14.6
2023-02-02T13:52:17.401Z,14.5
2023-02-02T13:53:20.454Z,14.5
2023-02-02T13:54:23.848Z,14.4
2023-02-02T13:55:28.352Z,14.3
2023-02-02T13:56:31.701Z,14.2
2023-02-02T13:57:34.526Z,14.1
2023-02-02T13:58:38.151Z,14
2023-02-02T13:59:41.894Z,13.9
2023-02-02T14:00:45.588Z,13.8
2023-02-02T14:01:49.133Z,13.7
2023-02-02T14:02:53.305Z,13.6
2023-02-02T14:03:56.840Z,13.5
2023-02-02T14:04:59.661Z,13.4
2023-02-02T14:06:03.663Z,13.3
2023-02-02T14:07:07.126Z,13.2
2023-02-02T14:08:10.877Z,13.1
2023-02-02T14:09:13.921Z,13.1
2023-02-02T14:10:17.069Z,13
2023-02-02T14:11:21.096Z,12.9
2023-02-02T14:12:24.572Z,12.8
2023-02-02T14:13:27.679Z,12.8
2023-02-02T14:14:31.047Z,12.7
2023-02-02T14:15:35.286Z,12.7
2023-02-02T14:16:38.549Z,12.6
2023-02-02T14:17:42.263Z,12.5
2023-02-02T14:18:45.074Z,12.5
2023-02-02T14:19:48.463Z,12.5
2023-02-02T14:20:51.566Z,12.4
2023-02-02T14:21:54.648Z,12.4
2023-02-02T14:22:58.386Z,12.3
2023-02-02T14:24:01.881Z,12.3
2023-02-02T14:25:05.366Z,12.2
2023-02-02T14:26:08.569Z,12.2
2023-02-02T14:27:12.174Z,12.1
2023-02-02T14:28:15.444Z,12.1
2023-02-02T14:29:18.790Z,12.1
2023-02-02T14:30:22.803Z,12.1
2023-02-02T14:31:28.750Z,12
2023-02-02T14:32:33.413Z,12